Terminal Aerodrome Forecast
Issued by NWS

Home | Current Version | Previous Version | Text Only | Print | Product List | Glossary On
Versions: 1 2 3 4 5 6 7 8 9 10 11 12 13 14 15 16
000
FTUS43 KILX 251139
TAFBMI
TAF
KBMI 251139Z 2512/2612 18020G25KT P6SM VCSH BKN015
     FM251400 22020G28KT P6SM BKN020
     FM251800 22017G25KT P6SM SCT040
     FM260000 18014KT P6SM BKN250
     FM260700 18012KT 5SM -SHRA VCTS BKN020CB=

USA.gov is the U.S. government's official web portal to all federal, state and local government web resources and services.